Linn Creek, MO (65052)

2:02 AM CST on December 11, 2016 (GMT -0600)
Near Big Surf | | Change Station

Elev 902 ft 38.07 °N, 92.69 °W | Updated 1 minute ago

Overcast
Overcast
39.0 °F
Feels Like 34 °F
N
6.3
Wind Variable Wind from SSW
Gusts 7.6 mph

Today
High -- | Low -- °F
--% Chance of Precip.
Yesterday
High -- | Low -- °F
Precip. -- in
Pressure 29.40 in
Visibility 10.0 miles
Clouds Overcast 3200 ft
Windchill 34 °F
Dew Point 27 °F
Humidity 62%
Rainfall 0.00 in
Snow Depth Not available.
7:17 AM 4:51 PM
Waxing Gibbous, 90% visible
METAR KAIZ 110756Z AUTO 17009KT 10SM OVC032 03/M06 A3003 RMK AO2 SLP956 T00331056
Pressure 29.40 in
Visibility 10.0 miles
Clouds Overcast 3200 ft
Windchill 34 °F
Dew Point 27 °F
Humidity 62%
Rainfall 0.00 in
Snow Depth Not available.
7:17 AM 4:51 PM
Waxing Gibbous, 90% visible
METAR KAIZ 110756Z AUTO 17009KT 10SM OVC032 03/M06 A3003 RMK AO2 SLP956 T00331056

10-Day Weather Forecast

Almanac

Astronomy

Dec. 11, 2016 Rise Set
Actual Time
Civil Twilight
Nautical Twilight
Astronomical Twilight
Moon
Length of Visible Light
Length of Day
Tomorrow will be .
, % of the Moon is Illuminated

Today's Extremes

State Highs State Lows

Community

WunderPhotos

Upload Photos

1,956,707 photos uploaded!

WunderBlog® & News

Nearby

Air Quality

  Air Quality AQ Index Pollutant
Not available.

Snow Depth

Station Depth Elevation

Earthquake Activity

City Distance Mag. Time & Date
Minimum magnitude displayed is 2.5.

Coastal Water Temperatures

Place Temperature

Stations

Nearby Weather Stations

Station Location Temp. Windchill Dew Point Humidity Wind Precip. Elev Updated Type
                   

Watches & Warnings

There are currently no watches in effect.